createdAt,value
2018-02-27T00:02:16.982Z,66.24
2018-02-27T00:04:45.303Z,66.36
2018-02-27T00:07:14.498Z,66.58
2018-02-27T00:09:44.505Z,66.41
2018-02-27T00:12:15.507Z,66.22
2018-02-27T00:14:43.857Z,66.96
2018-02-27T00:17:13.014Z,66.84
2018-02-27T00:19:41.445Z,67.02
2018-02-27T00:22:09.742Z,66.88
2018-02-27T00:24:40.593Z,66.96
2018-02-27T00:27:08.947Z,67.14
2018-02-27T00:29:39.293Z,67.34
2018-02-27T00:32:08.469Z,67.35
2018-02-27T00:34:36.826Z,67.51
2018-02-27T00:37:07.099Z,67.58
2018-02-27T00:39:38.481Z,67.85
2018-02-27T00:42:07.569Z,67.75
2018-02-27T00:44:35.859Z,68.02
2018-02-27T00:47:04.223Z,67.95
2018-02-27T00:49:32.536Z,68.09
2018-02-27T00:52:01.590Z,68.06
2018-02-27T00:54:29.938Z,68.32
2018-02-27T00:56:58.501Z,68.29
2018-02-27T00:59:26.859Z,68.42
2018-02-27T01:01:59.054Z,68.64
2018-02-27T01:04:29.079Z,68.49
2018-02-27T01:07:01.947Z,68.84
2018-02-27T01:09:31.243Z,68.72
2018-02-27T01:11:59.635Z,68.83
2018-02-27T01:14:29.790Z,68.74
2018-02-27T01:16:58.189Z,68.77
2018-02-27T01:19:28.207Z,68.86
2018-02-27T01:21:56.557Z,69.00
2018-02-27T01:24:24.902Z,69.13
2018-02-27T01:26:54.922Z,69.01
2018-02-27T01:29:24.118Z,69.30
2018-02-27T01:31:52.492Z,69.45
2018-02-27T01:34:21.702Z,69.22
2018-02-27T01:36:50.105Z,69.51
2018-02-27T01:39:20.195Z,68.97
2018-02-27T01:41:50.319Z,69.54
2018-02-27T01:44:18.740Z,69.68
2018-02-27T01:46:47.108Z,69.90
2018-02-27T01:49:16.185Z,69.83
2018-02-27T01:51:45.297Z,69.87
2018-02-27T01:54:13.721Z,69.78
2018-02-27T01:56:42.093Z,70.07
2018-02-27T01:59:10.479Z,70.08
2018-02-27T02:01:39.028Z,70.33
2018-02-27T02:04:07.337Z,70.10
2018-02-27T02:06:35.979Z,70.28
2018-02-27T02:09:04.356Z,70.44
2018-02-27T02:11:33.869Z,70.28
2018-02-27T02:14:02.961Z,70.51
2018-02-27T02:16:33.031Z,70.39
2018-02-27T02:19:01.382Z,70.50
2018-02-27T02:21:32.544Z,70.37
2018-02-27T02:24:00.888Z,70.83
2018-02-27T02:26:29.251Z,70.63
2018-02-27T02:28:57.589Z,70.79
2018-02-27T02:31:25.916Z,70.91
2018-02-27T02:33:55.130Z,70.95
2018-02-27T02:36:23.453Z,70.87
2018-02-27T02:38:51.826Z,70.96
2018-02-27T02:41:23.454Z,70.97
2018-02-27T02:43:51.856Z,71.12
2018-02-27T02:46:21.262Z,71.20
2018-02-27T02:48:51.417Z,71.29
2018-02-27T02:51:21.576Z,71.37
2018-02-27T02:53:50.850Z,71.48
2018-02-27T02:56:22.770Z,71.49
2018-02-27T02:58:52.466Z,71.57
2018-02-27T03:01:20.844Z,71.12
2018-02-27T03:03:51.998Z,71.51
2018-02-27T03:06:22.106Z,71.45
2018-02-27T03:08:51.611Z,71.45
2018-02-27T03:11:20.132Z,71.46
2018-02-27T03:13:48.479Z,71.49
2018-02-27T03:16:16.863Z,71.28
2018-02-27T03:18:46.030Z,71.19
2018-02-27T03:21:14.410Z,71.46
2018-02-27T03:23:42.732Z,71.50
2018-02-27T03:26:11.924Z,71.21
2018-02-27T03:28:40.260Z,70.91
2018-02-27T03:31:08.602Z,71.10
2018-02-27T03:33:36.944Z,71.32
2018-02-27T03:36:07.054Z,71.03
2018-02-27T03:38:35.516Z,70.94
2018-02-27T03:41:03.872Z,71.13
2018-02-27T03:43:32.300Z,71.11
2018-02-27T03:46:01.523Z,71.31
2018-02-27T03:48:29.868Z,71.22
2018-02-27T03:51:00.744Z,71.17
2018-02-27T03:53:29.355Z,71.12
2018-02-27T03:55:58.530Z,71.23
2018-02-27T03:58:28.870Z,71.03
2018-02-27T04:01:01.342Z,71.29
2018-02-27T04:03:29.750Z,71.15
2018-02-27T04:05:58.132Z,71.24
2018-02-27T04:08:26.547Z,71.21
2018-02-27T04:10:56.566Z,71.19
2018-02-27T04:13:26.682Z,70.89
2018-02-27T04:15:55.819Z,71.09
2018-02-27T04:18:25.833Z,71.08
2018-02-27T04:20:54.256Z,70.99
2018-02-27T04:23:22.588Z,71.03
2018-02-27T04:25:51.010Z,71.19
2018-02-27T04:28:20.089Z,70.99
2018-02-27T04:30:48.407Z,71.21
2018-02-27T04:33:16.758Z,71.21
2018-02-27T04:35:45.822Z,71.25
2018-02-27T04:38:14.541Z,71.45
2018-02-27T04:40:43.650Z,71.51
2018-02-27T04:43:12.033Z,71.27
2018-02-27T04:45:40.494Z,71.37
2018-02-27T04:48:11.595Z,71.19
2018-02-27T04:50:39.951Z,71.55
2018-02-27T04:53:08.332Z,71.59
2018-02-27T04:55:37.824Z,71.50
2018-02-27T04:58:06.196Z,71.33
2018-02-27T05:00:36.297Z,71.54
2018-02-27T05:03:04.852Z,71.65
2018-02-27T05:05:35.058Z,71.74
2018-02-27T05:08:06.181Z,71.78
2018-02-27T05:10:36.793Z,71.98
2018-02-27T05:13:05.563Z,71.76
2018-02-27T05:15:34.678Z,71.53
2018-02-27T05:18:03.781Z,71.69
2018-02-27T05:20:32.199Z,71.80
2018-02-27T05:23:03.498Z,71.96
2018-02-27T05:25:31.970Z,71.90
2018-02-27T05:28:04.258Z,72.08
2018-02-27T05:30:32.731Z,71.83
2018-02-27T05:33:01.345Z,72.05
2018-02-27T05:35:32.552Z,72.28
2018-02-27T05:38:00.937Z,72.44
2018-02-27T05:40:29.306Z,72.40
2018-02-27T05:42:59.790Z,72.38
2018-02-27T05:45:28.224Z,72.48
2018-02-27T05:47:56.608Z,72.42
2018-02-27T05:50:26.743Z,72.64
2018-02-27T05:52:55.115Z,72.81
2018-02-27T05:55:23.531Z,72.86
2018-02-27T05:57:51.897Z,72.61
2018-02-27T06:00:21.060Z,72.86
2018-02-27T06:02:49.422Z,73.07
2018-02-27T06:05:17.851Z,73.18
2018-02-27T06:07:48.000Z,73.26
2018-02-27T06:10:16.437Z,73.27
2018-02-27T06:12:47.327Z,73.42
2018-02-27T06:15:16.017Z,73.37
2018-02-27T06:17:44.606Z,73.46
2018-02-27T06:20:12.973Z,73.22
2018-02-27T06:22:41.295Z,73.48
2018-02-27T06:25:11.489Z,73.58
2018-02-27T06:27:39.871Z,73.50
2018-02-27T06:30:09.005Z,73.63
2018-02-27T06:32:37.555Z,73.57
2018-02-27T06:35:05.882Z,73.57
2018-02-27T06:37:34.204Z,73.67
2018-02-27T06:40:02.689Z,73.40
2018-02-27T06:42:32.743Z,73.30
2018-02-27T06:45:04.447Z,73.23
2018-02-27T06:47:32.855Z,72.99
2018-02-27T06:50:03.093Z,73.13
2018-02-27T06:52:33.287Z,73.26
2018-02-27T06:55:01.759Z,73.08
2018-02-27T06:57:30.143Z,73.26
2018-02-27T06:59:58.629Z,73.30
2018-02-27T07:02:28.869Z,73.26
2018-02-27T07:04:58.347Z,73.41
2018-02-27T07:07:26.722Z,73.27
2018-02-27T07:09:55.105Z,72.86
2018-02-27T07:12:24.403Z,73.14
2018-02-27T07:14:54.618Z,72.68
2018-02-27T07:17:27.612Z,72.39
2018-02-27T07:19:57.826Z,72.74
2018-02-27T07:22:26.210Z,72.74
2018-02-27T07:24:55.542Z,72.53
2018-02-27T07:27:25.058Z,72.48
2018-02-27T07:29:53.747Z,72.21
2018-02-27T07:32:22.284Z,72.37
2018-02-27T07:34:53.534Z,72.34
2018-02-27T07:37:21.909Z,72.50
2018-02-27T07:39:50.653Z,72.02
2018-02-27T07:42:19.125Z,71.74
2018-02-27T07:44:49.194Z,71.84
2018-02-27T07:47:17.652Z,71.88
2018-02-27T07:49:46.081Z,71.67
2018-02-27T07:52:14.520Z,71.51
2018-02-27T07:54:43.692Z,71.53
2018-02-27T07:57:12.140Z,71.30
2018-02-27T07:59:41.319Z,71.26
2018-02-27T08:02:09.700Z,71.15
2018-02-27T08:04:38.089Z,71.04
2018-02-27T08:07:07.252Z,71.36
2018-02-27T08:09:38.274Z,70.88
2018-02-27T08:12:06.691Z,71.17
2018-02-27T08:14:35.207Z,70.49
2018-02-27T08:17:03.574Z,70.32
2018-02-27T08:19:33.007Z,70.23
2018-02-27T08:22:01.486Z,70.00
2018-02-27T08:24:30.018Z,69.98
2018-02-27T08:26:58.541Z,69.56
2018-02-27T08:29:28.542Z,69.52
2018-02-27T08:31:57.029Z,69.30
2018-02-27T08:34:27.605Z,69.38
2018-02-27T08:36:58.370Z,68.89
2018-02-27T08:39:26.735Z,69.09
2018-02-27T08:41:56.702Z,68.01
2018-02-27T08:44:25.060Z,67.64
2018-02-27T08:46:53.440Z,66.90
2018-02-27T08:49:24.658Z,66.49
2018-02-27T08:51:53.869Z,66.04
2018-02-27T08:54:23.071Z,66.14
2018-02-27T08:56:51.551Z,64.77
2018-02-27T08:59:21.867Z,64.66
2018-02-27T09:01:51.088Z,63.46
2018-02-27T09:04:19.550Z,63.37
2018-02-27T09:06:48.660Z,62.56
2018-02-27T09:09:17.017Z,63.31
2018-02-27T09:11:46.164Z,62.48
2018-02-27T09:14:14.606Z,62.32
2018-02-27T09:16:44.591Z,61.22
2018-02-27T09:19:14.760Z,61.76
2018-02-27T09:21:43.866Z,61.62
2018-02-27T09:24:12.964Z,62.71
2018-02-27T09:26:41.591Z,62.27
2018-02-27T09:29:11.825Z,60.36
2018-02-27T09:31:41.927Z,59.92
2018-02-27T09:34:10.360Z,60.53
2018-02-27T09:36:38.703Z,60.10
2018-02-27T09:39:07.064Z,59.77
2018-02-27T09:41:35.452Z,60.25
2018-02-27T09:44:03.833Z,60.60
2018-02-27T09:46:32.924Z,59.49
2018-02-27T09:49:01.402Z,60.53
2018-02-27T09:51:31.830Z,61.13
2018-02-27T09:54:02.504Z,59.71
2018-02-27T09:56:30.910Z,59.50
2018-02-27T09:58:59.419Z,60.37
2018-02-27T10:01:29.600Z,59.47
2018-02-27T10:03:58.040Z,58.41
2018-02-27T10:06:26.605Z,58.94
2018-02-27T10:08:55.695Z,58.05
2018-02-27T10:11:24.796Z,57.40
2018-02-27T10:13:53.215Z,58.20
2018-02-27T10:16:23.321Z,58.40
2018-02-27T10:18:53.454Z,56.09
2018-02-27T10:21:24.068Z,55.52
2018-02-27T10:23:52.574Z,56.57
2018-02-27T10:26:20.924Z,55.36
2018-02-27T10:28:52.121Z,56.28
2018-02-27T10:31:20.521Z,55.33
2018-02-27T10:33:51.544Z,56.16
2018-02-27T10:36:21.629Z,56.65
2018-02-27T10:38:49.989Z,55.72
2018-02-27T10:41:18.347Z,55.48
2018-02-27T10:43:46.693Z,54.58
2018-02-27T10:46:17.678Z,54.83
2018-02-27T10:48:47.891Z,53.55
2018-02-27T10:53:52.451Z,54.41
2018-02-27T10:56:20.901Z,54.11
2018-02-27T10:58:49.281Z,51.97
2018-02-27T11:01:21.446Z,53.67
2018-02-27T11:03:49.825Z,54.28
2018-02-27T11:06:18.204Z,54.88
2018-02-27T11:08:49.523Z,54.50
2018-02-27T11:11:17.935Z,55.73
2018-02-27T11:13:46.396Z,56.86
2018-02-27T11:16:14.713Z,54.19
2018-02-27T11:18:43.166Z,53.71
2018-02-27T11:21:13.345Z,52.42
2018-02-27T11:23:42.286Z,54.35
2018-02-27T11:26:10.634Z,54.92
2018-02-27T11:28:41.784Z,54.34
2018-02-27T11:31:10.183Z,53.75
2018-02-27T11:33:38.590Z,53.40
2018-02-27T11:36:10.210Z,53.82
2018-02-27T11:38:38.673Z,53.40
2018-02-27T11:41:07.078Z,53.54
2018-02-27T11:43:35.613Z,53.83
2018-02-27T11:46:04.239Z,54.40
2018-02-27T11:48:32.617Z,54.36
2018-02-27T11:51:01.095Z,54.98
2018-02-27T11:53:30.372Z,54.74
2018-02-27T11:55:58.754Z,54.35
2018-02-27T11:58:27.144Z,55.04
2018-02-27T12:00:57.218Z,54.24
2018-02-27T12:03:26.445Z,53.31
2018-02-27T12:05:56.504Z,55.45
2018-02-27T12:08:29.104Z,55.68
2018-02-27T12:10:57.464Z,54.62
2018-02-27T12:13:25.935Z,55.63
2018-02-27T12:15:54.313Z,54.35
2018-02-27T12:18:24.358Z,55.11
2018-02-27T12:20:54.621Z,55.01
2018-02-27T12:23:26.002Z,53.20
2018-02-27T12:25:55.304Z,53.22
2018-02-27T12:28:24.398Z,53.72
2018-02-27T12:30:52.779Z,52.58
2018-02-27T12:33:21.284Z,53.19
2018-02-27T12:35:49.655Z,53.90
2018-02-27T12:38:20.584Z,52.58
2018-02-27T12:40:48.949Z,52.72
2018-02-27T12:43:17.449Z,53.51
2018-02-27T12:45:46.557Z,53.02
2018-02-27T12:48:15.671Z,52.85
2018-02-27T12:50:44.021Z,51.27
2018-02-27T12:53:12.408Z,52.50
2018-02-27T12:55:41.011Z,51.92
2018-02-27T12:58:09.391Z,52.65
2018-02-27T13:00:38.442Z,51.93
2018-02-27T13:03:06.831Z,52.74
2018-02-27T13:05:35.154Z,52.74
2018-02-27T13:08:03.477Z,51.75
2018-02-27T13:10:32.435Z,53.79
2018-02-27T13:13:00.842Z,52.81
2018-02-27T13:15:29.211Z,52.25
2018-02-27T13:17:57.575Z,50.86
2018-02-27T13:20:25.938Z,51.77
2018-02-27T13:22:55.888Z,52.11
2018-02-27T13:25:24.288Z,53.00
2018-02-27T13:27:52.651Z,51.87
2018-02-27T13:30:20.971Z,50.43
2018-02-27T13:32:49.448Z,51.32
2018-02-27T13:35:17.909Z,50.36
2018-02-27T13:37:46.299Z,51.53
2018-02-27T13:40:14.695Z,51.24
2018-02-27T13:42:43.125Z,50.18
2018-02-27T13:45:13.223Z,50.14
2018-02-27T13:47:41.591Z,52.22
2018-02-27T13:50:11.699Z,54.49
2018-02-27T13:52:40.082Z,52.23
2018-02-27T13:55:08.435Z,51.22
2018-02-27T13:57:36.909Z,51.53
2018-02-27T14:00:07.877Z,53.55
2018-02-27T14:02:36.240Z,52.68
2018-02-27T14:05:04.629Z,52.27
2018-02-27T14:07:34.703Z,52.83
2018-02-27T14:10:03.586Z,52.12
2018-02-27T14:12:33.545Z,52.10
2018-02-27T14:15:04.954Z,52.61
2018-02-27T14:17:35.010Z,53.14
2018-02-27T14:20:03.400Z,52.62
2018-02-27T14:22:31.861Z,52.40
2018-02-27T14:25:00.215Z,53.86
2018-02-27T14:27:29.344Z,51.54
2018-02-27T14:29:57.798Z,53.24
2018-02-27T14:32:26.182Z,51.66
2018-02-27T14:34:54.641Z,51.55
2018-02-27T14:37:23.123Z,51.92
2018-02-27T14:39:51.651Z,51.92
2018-02-27T14:42:20.062Z,53.48
2018-02-27T14:44:48.409Z,53.61
2018-02-27T14:47:16.754Z,54.21
2018-02-27T14:49:45.283Z,54.34
2018-02-27T14:52:13.652Z,54.54
2018-02-27T14:54:43.748Z,52.47
2018-02-27T14:57:12.142Z,52.79
2018-02-27T14:59:42.092Z,53.97
2018-02-27T15:02:10.544Z,53.31
2018-02-27T15:04:38.893Z,53.88
2018-02-27T15:07:07.501Z,52.28
2018-02-27T15:09:35.832Z,53.01
2018-02-27T15:12:04.250Z,54.98
2018-02-27T15:14:32.635Z,53.55
2018-02-27T15:17:01.076Z,53.00
2018-02-27T15:19:29.521Z,54.32
2018-02-27T15:21:57.902Z,53.34
2018-02-27T15:24:26.691Z,54.02
2018-02-27T15:26:57.184Z,53.44
2018-02-27T15:29:25.534Z,53.82
2018-02-27T15:31:53.872Z,52.58
2018-02-27T15:34:23.005Z,53.08
2018-02-27T15:36:51.309Z,53.21
2018-02-27T15:39:19.644Z,53.35
2018-02-27T15:41:49.746Z,52.95
2018-02-27T15:44:18.148Z,53.43
2018-02-27T15:46:48.207Z,52.90
2018-02-27T15:49:16.591Z,54.10
2018-02-27T15:51:44.932Z,52.75
2018-02-27T15:54:17.034Z,52.55
2018-02-27T15:56:45.439Z,54.65
2018-02-27T15:59:17.810Z,54.61
2018-02-27T16:01:48.105Z,55.57
2018-02-27T16:04:19.524Z,56.36
2018-02-27T16:06:47.865Z,55.73
2018-02-27T16:09:16.190Z,54.78
2018-02-27T16:11:45.301Z,54.87
2018-02-27T16:14:15.515Z,55.04
2018-02-27T16:16:43.864Z,55.80
2018-02-27T16:19:12.187Z,55.72
2018-02-27T16:21:42.160Z,54.63
2018-02-27T16:24:10.595Z,55.15
2018-02-27T16:26:40.596Z,56.35
2018-02-27T16:29:09.104Z,55.21
2018-02-27T16:31:37.493Z,55.39
2018-02-27T16:34:05.896Z,54.34
2018-02-27T16:36:34.290Z,55.34
2018-02-27T16:39:02.656Z,55.64
2018-02-27T16:41:31.169Z,55.57
2018-02-27T16:44:00.781Z,54.89
2018-02-27T16:46:33.321Z,55.24
2018-02-27T16:49:01.829Z,54.84
2018-02-27T16:51:30.208Z,55.64
2018-02-27T16:53:58.585Z,55.39
2018-02-27T16:56:27.566Z,55.42
2018-02-27T16:58:55.928Z,55.90
2018-02-27T17:01:24.303Z,56.80
2018-02-27T17:03:52.730Z,56.82
2018-02-27T17:06:21.057Z,56.98
2018-02-27T17:08:51.121Z,57.70
2018-02-27T17:11:22.044Z,57.41
2018-02-27T17:13:50.666Z,57.68
2018-02-27T17:16:18.968Z,57.85
2018-02-27T17:18:47.294Z,58.57
2018-02-27T17:21:15.862Z,58.89
2018-02-27T17:23:46.961Z,58.99
2018-02-27T17:26:16.488Z,59.23
2018-02-27T17:28:44.883Z,59.54
2018-02-27T17:31:15.037Z,59.17
2018-02-27T17:33:43.476Z,59.31
2018-02-27T17:36:11.944Z,59.88
2018-02-27T17:38:40.328Z,59.73
2018-02-27T17:41:08.682Z,60.05
2018-02-27T17:43:37.034Z,60.06
2018-02-27T17:46:06.084Z,60.41
2018-02-27T17:48:34.435Z,60.05
2018-02-27T17:51:04.387Z,60.54
2018-02-27T17:53:33.575Z,60.29
2018-02-27T17:56:03.804Z,60.71
2018-02-27T17:58:34.679Z,60.97
2018-02-27T18:01:03.024Z,60.94
2018-02-27T18:03:32.839Z,60.68
2018-02-27T18:06:01.277Z,60.71
2018-02-27T18:08:29.611Z,61.04
2018-02-27T18:10:57.976Z,61.05
2018-02-27T18:13:28.100Z,61.21
2018-02-27T18:15:56.494Z,61.20
2018-02-27T18:18:25.553Z,61.85
2018-02-27T18:20:53.883Z,61.28
2018-02-27T18:23:22.239Z,61.30
2018-02-27T18:25:52.230Z,61.09
2018-02-27T18:28:20.609Z,61.61
2018-02-27T18:30:48.965Z,61.71
2018-02-27T18:33:17.842Z,62.32
2018-02-27T18:35:46.187Z,62.26
2018-02-27T18:38:16.501Z,62.30
2018-02-27T18:40:47.182Z,62.32
2018-02-27T18:43:15.685Z,62.65
2018-02-27T18:45:44.162Z,62.87
2018-02-27T18:48:12.555Z,62.89
2018-02-27T18:50:40.928Z,63.04
2018-02-27T18:53:11.507Z,63.02
2018-02-27T18:55:39.884Z,63.16
2018-02-27T18:58:10.006Z,63.28
2018-02-27T19:00:38.655Z,63.45
2018-02-27T19:03:08.895Z,63.61
2018-02-27T19:05:37.288Z,63.78
2018-02-27T19:08:07.844Z,63.80
2018-02-27T19:10:38.774Z,63.89
2018-02-27T19:13:08.941Z,63.55
2018-02-27T19:15:37.306Z,63.72
2018-02-27T19:18:07.490Z,63.51
2018-02-27T19:20:36.010Z,63.57
2018-02-27T19:23:04.492Z,63.66
2018-02-27T19:25:32.896Z,63.56
2018-02-27T19:28:01.301Z,63.77
2018-02-27T19:30:29.763Z,63.91
2018-02-27T19:32:58.207Z,64.17
2018-02-27T19:35:26.705Z,64.28
2018-02-27T19:37:55.783Z,64.43
2018-02-27T19:40:25.287Z,64.29
2018-02-27T19:42:54.385Z,64.52
2018-02-27T19:45:22.781Z,64.52
2018-02-27T19:47:53.186Z,64.55
2018-02-27T19:50:23.915Z,64.80
2018-02-27T19:52:54.048Z,64.94
2018-02-27T19:55:22.443Z,65.02
2018-02-27T19:57:52.994Z,65.30
2018-02-27T20:00:22.151Z,65.33
2018-02-27T20:02:50.561Z,65.50
2018-02-27T20:05:20.109Z,65.63
2018-02-27T20:07:50.665Z,65.68
2018-02-27T20:10:19.168Z,65.88
2018-02-27T20:12:48.991Z,66.19
2018-02-27T20:15:20.098Z,66.12
2018-02-27T20:17:56.567Z,66.22
2018-02-27T20:20:25.689Z,66.26
2018-02-27T20:22:59.919Z,66.26
2018-02-27T20:25:30.216Z,66.20
2018-02-27T20:27:59.772Z,66.26
2018-02-27T20:30:30.744Z,66.14
2018-02-27T20:33:01.344Z,66.25
2018-02-27T20:35:30.819Z,66.10
2018-02-27T20:37:59.294Z,66.11
2018-02-27T20:40:28.008Z,66.44
2018-02-27T20:42:59.225Z,66.54
2018-02-27T20:45:27.783Z,66.63
2018-02-27T20:47:56.264Z,66.62
2018-02-27T20:50:24.768Z,66.54
2018-02-27T20:52:53.430Z,66.54
2018-02-27T20:55:23.786Z,66.65
2018-02-27T20:57:55.600Z,66.58
2018-02-27T21:00:26.749Z,66.75
2018-02-27T21:02:57.588Z,67.13
2018-02-27T21:05:26.188Z,67.23
2018-02-27T21:07:54.573Z,67.34
2018-02-27T21:10:23.002Z,67.37
2018-02-27T21:12:53.284Z,67.58
2018-02-27T21:15:21.872Z,67.75
2018-02-27T21:17:50.338Z,67.90
2018-02-27T21:20:18.821Z,67.93
2018-02-27T21:22:49.870Z,68.18
2018-02-27T21:35:05.171Z,68.80
2018-02-27T21:37:33.705Z,68.94
2018-02-27T21:40:02.222Z,69.32
2018-02-27T21:42:32.670Z,69.76
2018-02-27T21:45:01.372Z,70.03
2018-02-27T21:47:31.575Z,70.87
2018-02-27T21:49:59.967Z,71.38
2018-02-27T21:52:28.545Z,71.65
2018-02-27T21:54:59.602Z,72.09
2018-02-27T21:57:28.788Z,72.32
2018-02-27T21:59:58.604Z,72.40
2018-02-27T22:02:27.826Z,72.87
2018-02-27T22:04:58.946Z,72.98
2018-02-27T22:07:27.365Z,72.95
2018-02-27T22:09:57.333Z,73.03
2018-02-27T22:12:26.449Z,73.47
2018-02-27T22:14:56.636Z,73.91
2018-02-27T22:17:25.096Z,74.21
2018-02-27T22:19:53.679Z,74.63
2018-02-27T22:22:21.986Z,74.86
2018-02-27T22:24:51.108Z,74.98
2018-02-27T22:27:19.471Z,75.53
2018-02-27T22:29:47.840Z,75.71
2018-02-27T22:32:16.186Z,75.89
2018-02-27T22:34:44.512Z,76.23
2018-02-27T22:37:12.940Z,76.23
2018-02-27T22:39:42.070Z,76.20
2018-02-27T22:42:10.615Z,76.25
2018-02-27T22:44:38.966Z,76.40
2018-02-27T22:47:09.557Z,76.70
2018-02-27T22:49:40.451Z,76.57
2018-02-27T22:52:08.876Z,76.53
2018-02-27T22:54:37.189Z,76.66
2018-02-27T22:57:06.623Z,76.82
2018-02-27T22:59:37.570Z,76.98
2018-02-27T23:02:06.479Z,77.19
2018-02-27T23:04:34.840Z,77.40
2018-02-27T23:07:03.163Z,77.42
2018-02-27T23:09:33.776Z,77.79
2018-02-27T23:12:02.224Z,77.51
2018-02-27T23:14:33.200Z,77.72
2018-02-27T23:17:01.664Z,78.36
2018-02-27T23:19:30.232Z,77.93
2018-02-27T23:21:58.576Z,77.54
2018-02-27T23:24:35.527Z,77.60
2018-02-27T23:27:05.711Z,77.14
2018-02-27T23:29:34.526Z,77.11
2018-02-27T23:32:04.641Z,77.28
2018-02-27T23:34:47.398Z,77.34
2018-02-27T23:37:18.341Z,77.46
2018-02-27T23:39:49.440Z,77.87
2018-02-27T23:42:17.852Z,78.20
2018-02-27T23:44:48.036Z,78.46
2018-02-27T23:47:16.595Z,78.56
2018-02-27T23:49:44.944Z,78.67
2018-02-27T23:52:14.395Z,78.83
2018-02-27T23:54:43.807Z,79.08
2018-02-27T23:57:12.209Z,79.15
2018-02-27T23:59:42.374Z,79.41
